sensor_id;sensor_type;location;lat;lon;timestamp;P1;durP1;ratioP1;P2;durP2;ratioP2
22254;SDS011;11296;42.684;23.322;2022-10-16T00:00:41;21.80;;;14.67;;
22254;SDS011;11296;42.684;23.322;2022-10-16T00:03:08;19.83;;;14.00;;
22254;SDS011;11296;42.684;23.322;2022-10-16T00:05:39;20.17;;;13.93;;
22254;SDS011;11296;42.684;23.322;2022-10-16T00:08:07;21.40;;;14.07;;
22254;SDS011;11296;42.684;23.322;2022-10-16T00:10:33;18.60;;;13.03;;
22254;SDS011;11296;42.684;23.322;2022-10-16T00:12:59;18.40;;;12.83;;
22254;SDS011;11296;42.684;23.322;2022-10-16T00:15:25;18.40;;;12.47;;
22254;SDS011;11296;42.684;23.322;2022-10-16T00:17:51;17.93;;;12.77;;
22254;SDS011;11296;42.684;23.322;2022-10-16T00:20:16;18.67;;;11.17;;
22254;SDS011;11296;42.684;23.322;2022-10-16T00:22:42;17.87;;;11.07;;
22254;SDS011;11296;42.684;23.322;2022-10-16T00:25:08;16.43;;;11.30;;
22254;SDS011;11296;42.684;23.322;2022-10-16T00:27:34;17.80;;;12.00;;
22254;SDS011;11296;42.684;23.322;2022-10-16T00:30:00;16.50;;;11.37;;
22254;SDS011;11296;42.684;23.322;2022-10-16T00:32:25;17.87;;;12.37;;
22254;SDS011;11296;42.684;23.322;2022-10-16T00:34:51;19.30;;;12.30;;
22254;SDS011;11296;42.684;23.322;2022-10-16T00:37:19;14.77;;;10.73;;
22254;SDS011;11296;42.684;23.322;2022-10-16T00:39:45;16.17;;;10.83;;
22254;SDS011;11296;42.684;23.322;2022-10-16T00:42:15;18.27;;;11.90;;
22254;SDS011;11296;42.684;23.322;2022-10-16T00:44:49;14.20;;;10.43;;
22254;SDS011;11296;42.684;23.322;2022-10-16T00:47:22;15.33;;;10.53;;
22254;SDS011;11296;42.684;23.322;2022-10-16T00:49:55;20.27;;;11.70;;
22254;SDS011;11296;42.684;23.322;2022-10-16T00:52:24;17.93;;;12.07;;
22254;SDS011;11296;42.684;23.322;2022-10-16T00:54:50;16.67;;;10.90;;
22254;SDS011;11296;42.684;23.322;2022-10-16T00:57:18;14.37;;;10.60;;
22254;SDS011;11296;42.684;23.322;2022-10-16T00:59:44;14.30;;;10.00;;
22254;SDS011;11296;42.684;23.322;2022-10-16T01:02:12;15.87;;;11.00;;
22254;SDS011;11296;42.684;23.322;2022-10-16T01:04:43;12.27;;;9.80;;
22254;SDS011;11296;42.684;23.322;2022-10-16T01:09:51;17.40;;;11.23;;
22254;SDS011;11296;42.684;23.322;2022-10-16T01:20:53;15.60;;;10.00;;
22254;SDS011;11296;42.684;23.322;2022-10-16T01:29:03;18.07;;;12.00;;
22254;SDS011;11296;42.684;23.322;2022-10-16T01:31:45;14.13;;;11.17;;
22254;SDS011;11296;42.684;23.322;2022-10-16T01:34:19;15.37;;;11.70;;
22254;SDS011;11296;42.684;23.322;2022-10-16T01:36:55;17.53;;;11.57;;
22254;SDS011;11296;42.684;23.322;2022-10-16T01:39:28;17.67;;;12.07;;
22254;SDS011;11296;42.684;23.322;2022-10-16T01:42:01;18.97;;;11.97;;
22254;SDS011;11296;42.684;23.322;2022-10-16T01:44:34;18.83;;;11.07;;
22254;SDS011;11296;42.684;23.322;2022-10-16T01:47:03;17.20;;;11.60;;
22254;SDS011;11296;42.684;23.322;2022-10-16T01:49:31;16.80;;;10.90;;
22254;SDS011;11296;42.684;23.322;2022-10-16T01:51:59;15.10;;;11.23;;
22254;SDS011;11296;42.684;23.322;2022-10-16T01:54:30;15.10;;;11.30;;
22254;SDS011;11296;42.684;23.322;2022-10-16T01:56:57;18.33;;;11.37;;
22254;SDS011;11296;42.684;23.322;2022-10-16T01:59:24;15.87;;;10.80;;
22254;SDS011;11296;42.684;23.322;2022-10-16T02:01:55;17.20;;;12.30;;
22254;SDS011;11296;42.684;23.322;2022-10-16T02:04:29;17.37;;;12.17;;
22254;SDS011;11296;42.684;23.322;2022-10-16T02:06:58;17.77;;;11.80;;
22254;SDS011;11296;42.684;23.322;2022-10-16T02:09:24;16.77;;;11.97;;
22254;SDS011;11296;42.684;23.322;2022-10-16T02:11:51;19.87;;;12.77;;
22254;SDS011;11296;42.684;23.322;2022-10-16T02:14:21;24.40;;;13.33;;
22254;SDS011;11296;42.684;23.322;2022-10-16T02:16:49;18.47;;;13.50;;
22254;SDS011;11296;42.684;23.322;2022-10-16T02:19:16;19.63;;;13.50;;
22254;SDS011;11296;42.684;23.322;2022-10-16T02:24:27;18.87;;;13.03;;
22254;SDS011;11296;42.684;23.322;2022-10-16T02:29:59;23.27;;;13.10;;
22254;SDS011;11296;42.684;23.322;2022-10-16T02:32:33;18.27;;;12.00;;
22254;SDS011;11296;42.684;23.322;2022-10-16T02:35:01;20.27;;;13.10;;
22254;SDS011;11296;42.684;23.322;2022-10-16T02:37:28;16.93;;;12.27;;
22254;SDS011;11296;42.684;23.322;2022-10-16T02:39:54;20.27;;;11.30;;
22254;SDS011;11296;42.684;23.322;2022-10-16T02:42:27;19.20;;;12.23;;
22254;SDS011;11296;42.684;23.322;2022-10-16T02:45:00;18.60;;;12.30;;
22254;SDS011;11296;42.684;23.322;2022-10-16T02:47:25;15.90;;;11.03;;
22254;SDS011;11296;42.684;23.322;2022-10-16T02:49:51;15.93;;;11.37;;
22254;SDS011;11296;42.684;23.322;2022-10-16T02:52:17;16.70;;;12.00;;
22254;SDS011;11296;42.684;23.322;2022-10-16T02:54:43;14.47;;;10.67;;
22254;SDS011;11296;42.684;23.322;2022-10-16T02:57:09;17.23;;;11.20;;
22254;SDS011;11296;42.684;23.322;2022-10-16T02:59:34;18.07;;;12.57;;
22254;SDS011;11296;42.684;23.322;2022-10-16T03:02:00;18.23;;;12.13;;
22254;SDS011;11296;42.684;23.322;2022-10-16T03:04:26;17.90;;;11.90;;
22254;SDS011;11296;42.684;23.322;2022-10-16T03:06:51;19.40;;;13.53;;
22254;SDS011;11296;42.684;23.322;2022-10-16T03:09:17;17.03;;;13.00;;
22254;SDS011;11296;42.684;23.322;2022-10-16T03:11:43;19.00;;;13.43;;
22254;SDS011;11296;42.684;23.322;2022-10-16T03:14:08;20.07;;;12.90;;
22254;SDS011;11296;42.684;23.322;2022-10-16T03:16:34;15.73;;;10.47;;
22254;SDS011;11296;42.684;23.322;2022-10-16T03:19:00;17.23;;;11.83;;
22254;SDS011;11296;42.684;23.322;2022-10-16T03:21:25;16.50;;;10.63;;
22254;SDS011;11296;42.684;23.322;2022-10-16T03:23:51;15.47;;;11.23;;
22254;SDS011;11296;42.684;23.322;2022-10-16T03:26:16;15.40;;;10.63;;
22254;SDS011;11296;42.684;23.322;2022-10-16T03:28:42;13.90;;;10.07;;
22254;SDS011;11296;42.684;23.322;2022-10-16T03:31:08;13.90;;;10.33;;
22254;SDS011;11296;42.684;23.322;2022-10-16T03:33:33;14.33;;;10.00;;
22254;SDS011;11296;42.684;23.322;2022-10-16T03:35:59;13.30;;;9.47;;
22254;SDS011;11296;42.684;23.322;2022-10-16T03:38:25;13.57;;;9.97;;
22254;SDS011;11296;42.684;23.322;2022-10-16T03:40:51;12.43;;;9.43;;
22254;SDS011;11296;42.684;23.322;2022-10-16T03:43:16;15.90;;;10.20;;
22254;SDS011;11296;42.684;23.322;2022-10-16T03:45:42;16.20;;;9.80;;
22254;SDS011;11296;42.684;23.322;2022-10-16T03:48:08;16.33;;;10.63;;
22254;SDS011;11296;42.684;23.322;2022-10-16T03:50:34;14.37;;;9.60;;
22254;SDS011;11296;42.684;23.322;2022-10-16T03:53:00;15.90;;;11.43;;
22254;SDS011;11296;42.684;23.322;2022-10-16T03:55:25;18.63;;;11.50;;
22254;SDS011;11296;42.684;23.322;2022-10-16T03:57:51;12.70;;;9.70;;
22254;SDS011;11296;42.684;23.322;2022-10-16T04:00:16;19.77;;;11.30;;
22254;SDS011;11296;42.684;23.322;2022-10-16T04:02:42;15.30;;;11.23;;
22254;SDS011;11296;42.684;23.322;2022-10-16T04:05:08;16.43;;;11.07;;
22254;SDS011;11296;42.684;23.322;2022-10-16T04:07:34;16.23;;;11.83;;
22254;SDS011;11296;42.684;23.322;2022-10-16T04:10:00;22.10;;;11.87;;
22254;SDS011;11296;42.684;23.322;2022-10-16T04:12:26;18.43;;;11.40;;
22254;SDS011;11296;42.684;23.322;2022-10-16T04:14:51;19.80;;;13.53;;
22254;SDS011;11296;42.684;23.322;2022-10-16T04:17:17;17.23;;;11.83;;
22254;SDS011;11296;42.684;23.322;2022-10-16T04:19:43;17.43;;;11.40;;
22254;SDS011;11296;42.684;23.322;2022-10-16T04:22:09;18.53;;;11.43;;
22254;SDS011;11296;42.684;23.322;2022-10-16T04:24:34;15.97;;;11.20;;
22254;SDS011;11296;42.684;23.322;2022-10-16T04:27:00;18.33;;;11.60;;
22254;SDS011;11296;42.684;23.322;2022-10-16T04:29:26;18.43;;;11.57;;
22254;SDS011;11296;42.684;23.322;2022-10-16T04:31:51;20.77;;;13.13;;
22254;SDS011;11296;42.684;23.322;2022-10-16T04:34:17;19.70;;;13.40;;
22254;SDS011;11296;42.684;23.322;2022-10-16T04:36:43;14.83;;;10.73;;
22254;SDS011;11296;42.684;23.322;2022-10-16T04:39:09;16.80;;;11.83;;
22254;SDS011;11296;42.684;23.322;2022-10-16T04:41:35;17.40;;;11.40;;
22254;SDS011;11296;42.684;23.322;2022-10-16T04:44:00;21.17;;;11.97;;
22254;SDS011;11296;42.684;23.322;2022-10-16T04:46:26;16.33;;;11.67;;
22254;SDS011;11296;42.684;23.322;2022-10-16T04:48:51;20.83;;;11.93;;
22254;SDS011;11296;42.684;23.322;2022-10-16T04:51:17;19.70;;;12.10;;
22254;SDS011;11296;42.684;23.322;2022-10-16T04:53:44;16.53;;;12.30;;
22254;SDS011;11296;42.684;23.322;2022-10-16T04:56:09;15.30;;;11.00;;
22254;SDS011;11296;42.684;23.322;2022-10-16T04:58:35;20.93;;;11.87;;
22254;SDS011;11296;42.684;23.322;2022-10-16T05:01:01;19.77;;;12.00;;
22254;SDS011;11296;42.684;23.322;2022-10-16T05:03:26;16.60;;;10.73;;
22254;SDS011;11296;42.684;23.322;2022-10-16T05:05:52;16.47;;;10.90;;
22254;SDS011;11296;42.684;23.322;2022-10-16T05:08:18;17.93;;;11.50;;
22254;SDS011;11296;42.684;23.322;2022-10-16T05:10:44;47.17;;;30.70;;
22254;SDS011;11296;42.684;23.322;2022-10-16T05:13:10;36.90;;;24.20;;
22254;SDS011;11296;42.684;23.322;2022-10-16T05:15:36;19.37;;;13.30;;
22254;SDS011;11296;42.684;23.322;2022-10-16T05:18:02;18.40;;;10.47;;
22254;SDS011;11296;42.684;23.322;2022-10-16T05:20:28;16.60;;;10.20;;
22254;SDS011;11296;42.684;23.322;2022-10-16T05:22:54;15.97;;;10.03;;
22254;SDS011;11296;42.684;23.322;2022-10-16T05:25:20;11.93;;;8.97;;
22254;SDS011;11296;42.684;23.322;2022-10-16T05:27:49;11.33;;;8.77;;
22254;SDS011;11296;42.684;23.322;2022-10-16T05:30:16;17.33;;;9.20;;
22254;SDS011;11296;42.684;23.322;2022-10-16T05:32:45;16.03;;;9.33;;
22254;SDS011;11296;42.684;23.322;2022-10-16T05:35:15;14.77;;;9.40;;
22254;SDS011;11296;42.684;23.322;2022-10-16T05:37:42;14.47;;;9.40;;
22254;SDS011;11296;42.684;23.322;2022-10-16T05:40:08;13.43;;;9.10;;
22254;SDS011;11296;42.684;23.322;2022-10-16T05:42:34;16.07;;;9.47;;
22254;SDS011;11296;42.684;23.322;2022-10-16T05:45:00;11.57;;;8.97;;
22254;SDS011;11296;42.684;23.322;2022-10-16T05:47:26;12.50;;;9.53;;
22254;SDS011;11296;42.684;23.322;2022-10-16T05:49:51;14.50;;;9.40;;
22254;SDS011;11296;42.684;23.322;2022-10-16T05:52:17;15.20;;;10.20;;
22254;SDS011;11296;42.684;23.322;2022-10-16T05:54:43;13.80;;;9.77;;
22254;SDS011;11296;42.684;23.322;2022-10-16T05:57:09;14.77;;;9.63;;
22254;SDS011;11296;42.684;23.322;2022-10-16T05:59:34;14.20;;;9.63;;
22254;SDS011;11296;42.684;23.322;2022-10-16T06:02:00;15.63;;;10.80;;
22254;SDS011;11296;42.684;23.322;2022-10-16T06:04:26;15.90;;;10.40;;
22254;SDS011;11296;42.684;23.322;2022-10-16T06:06:51;17.17;;;11.00;;
22254;SDS011;11296;42.684;23.322;2022-10-16T06:09:17;15.83;;;10.50;;
22254;SDS011;11296;42.684;23.322;2022-10-16T06:11:43;20.83;;;13.03;;
22254;SDS011;11296;42.684;23.322;2022-10-16T06:14:08;25.33;;;18.03;;
22254;SDS011;11296;42.684;23.322;2022-10-16T06:16:35;22.87;;;14.57;;
22254;SDS011;11296;42.684;23.322;2022-10-16T06:19:02;15.30;;;11.30;;
22254;SDS011;11296;42.684;23.322;2022-10-16T06:21:31;16.43;;;10.37;;
22254;SDS011;11296;42.684;23.322;2022-10-16T06:23:57;17.10;;;10.00;;
22254;SDS011;11296;42.684;23.322;2022-10-16T06:26:27;15.03;;;10.30;;
22254;SDS011;11296;42.684;23.322;2022-10-16T06:28:55;10.93;;;9.40;;
22254;SDS011;11296;42.684;23.322;2022-10-16T06:31:22;15.90;;;10.57;;
22254;SDS011;11296;42.684;23.322;2022-10-16T06:33:51;23.03;;;14.80;;
22254;SDS011;11296;42.684;23.322;2022-10-16T06:36:17;18.83;;;12.90;;
22254;SDS011;11296;42.684;23.322;2022-10-16T06:38:43;17.83;;;12.87;;
22254;SDS011;11296;42.684;23.322;2022-10-16T06:41:11;16.87;;;12.40;;
22254;SDS011;11296;42.684;23.322;2022-10-16T06:43:38;17.17;;;11.07;;
22254;SDS011;11296;42.684;23.322;2022-10-16T06:46:04;13.47;;;10.50;;
22254;SDS011;11296;42.684;23.322;2022-10-16T06:48:33;15.03;;;10.73;;
22254;SDS011;11296;42.684;23.322;2022-10-16T06:51:00;13.90;;;10.17;;
22254;SDS011;11296;42.684;23.322;2022-10-16T06:53:27;15.70;;;11.77;;
22254;SDS011;11296;42.684;23.322;2022-10-16T06:55:55;15.20;;;10.83;;
22254;SDS011;11296;42.684;23.322;2022-10-16T06:58:21;13.20;;;10.23;;
22254;SDS011;11296;42.684;23.322;2022-10-16T07:00:47;12.37;;;10.17;;
22254;SDS011;11296;42.684;23.322;2022-10-16T07:03:13;12.07;;;9.90;;
22254;SDS011;11296;42.684;23.322;2022-10-16T07:05:40;14.43;;;10.33;;
22254;SDS011;11296;42.684;23.322;2022-10-16T07:08:07;17.77;;;11.43;;
22254;SDS011;11296;42.684;23.322;2022-10-16T07:10:33;14.47;;;10.70;;
22254;SDS011;11296;42.684;23.322;2022-10-16T07:12:59;17.70;;;13.57;;
22254;SDS011;11296;42.684;23.322;2022-10-16T07:15:25;23.47;;;15.50;;
22254;SDS011;11296;42.684;23.322;2022-10-16T07:17:51;17.40;;;11.07;;
22254;SDS011;11296;42.684;23.322;2022-10-16T07:20:18;16.33;;;11.43;;
22254;SDS011;11296;42.684;23.322;2022-10-16T07:22:43;18.73;;;12.20;;
22254;SDS011;11296;42.684;23.322;2022-10-16T07:25:09;15.63;;;11.97;;
22254;SDS011;11296;42.684;23.322;2022-10-16T07:27:36;17.83;;;12.30;;
22254;SDS011;11296;42.684;23.322;2022-10-16T07:30:02;17.33;;;13.10;;
22254;SDS011;11296;42.684;23.322;2022-10-16T07:32:29;16.20;;;12.10;;
22254;SDS011;11296;42.684;23.322;2022-10-16T07:34:56;15.07;;;11.37;;
22254;SDS011;11296;42.684;23.322;2022-10-16T07:37:21;16.60;;;11.47;;
22254;SDS011;11296;42.684;23.322;2022-10-16T07:39:49;13.90;;;11.20;;
22254;SDS011;11296;42.684;23.322;2022-10-16T07:42:15;14.13;;;11.27;;
22254;SDS011;11296;42.684;23.322;2022-10-16T07:44:56;14.47;;;11.03;;
22254;SDS011;11296;42.684;23.322;2022-10-16T07:47:22;15.93;;;11.37;;
22254;SDS011;11296;42.684;23.322;2022-10-16T07:49:52;15.33;;;10.40;;
22254;SDS011;11296;42.684;23.322;2022-10-16T07:52:20;12.07;;;9.83;;
22254;SDS011;11296;42.684;23.322;2022-10-16T07:54:45;13.27;;;9.93;;
22254;SDS011;11296;42.684;23.322;2022-10-16T07:57:11;13.20;;;9.67;;
22254;SDS011;11296;42.684;23.322;2022-10-16T07:59:37;12.53;;;9.10;;
22254;SDS011;11296;42.684;23.322;2022-10-16T08:02:03;10.73;;;9.00;;
22254;SDS011;11296;42.684;23.322;2022-10-16T08:04:31;13.03;;;9.73;;
22254;SDS011;11296;42.684;23.322;2022-10-16T08:06:57;47.93;;;29.07;;
22254;SDS011;11296;42.684;23.322;2022-10-16T08:09:23;12.33;;;9.47;;
22254;SDS011;11296;42.684;23.322;2022-10-16T08:11:49;11.00;;;8.40;;
22254;SDS011;11296;42.684;23.322;2022-10-16T08:14:14;10.43;;;8.37;;
22254;SDS011;11296;42.684;23.322;2022-10-16T08:16:44;12.97;;;9.37;;
22254;SDS011;11296;42.684;23.322;2022-10-16T08:19:12;8.87;;;7.90;;
22254;SDS011;11296;42.684;23.322;2022-10-16T08:21:40;10.97;;;7.80;;
22254;SDS011;11296;42.684;23.322;2022-10-16T08:24:06;9.90;;;7.93;;
22254;SDS011;11296;42.684;23.322;2022-10-16T08:26:35;8.73;;;7.27;;
22254;SDS011;11296;42.684;23.322;2022-10-16T08:29:01;10.03;;;7.13;;
22254;SDS011;11296;42.684;23.322;2022-10-16T08:31:28;8.73;;;6.80;;
22254;SDS011;11296;42.684;23.322;2022-10-16T08:33:54;7.80;;;6.20;;
22254;SDS011;11296;42.684;23.322;2022-10-16T08:36:20;8.13;;;6.57;;
22254;SDS011;11296;42.684;23.322;2022-10-16T08:38:49;8.37;;;5.97;;
22254;SDS011;11296;42.684;23.322;2022-10-16T08:49:33;11.07;;;6.27;;
22254;SDS011;11296;42.684;23.322;2022-10-16T08:52:01;6.10;;;5.40;;
22254;SDS011;11296;42.684;23.322;2022-10-16T09:04:55;13.57;;;4.57;;
22254;SDS011;11296;42.684;23.322;2022-10-16T09:34:43;3.40;;;3.10;;
22254;SDS011;11296;42.684;23.322;2022-10-16T09:38:30;4.20;;;3.80;;
22254;SDS011;11296;42.684;23.322;2022-10-16T09:52:12;5.07;;;3.40;;
22254;SDS011;11296;42.684;23.322;2022-10-16T09:58:34;4.68;;;4.18;;
22254;SDS011;11296;42.684;23.322;2022-10-16T10:01:02;4.07;;;3.67;;
22254;SDS011;11296;42.684;23.322;2022-10-16T10:03:38;3.90;;;3.60;;
22254;SDS011;11296;42.684;23.322;2022-10-16T10:10:06;4.57;;;3.65;;
22254;SDS011;11296;42.684;23.322;2022-10-16T10:12:58;3.65;;;3.10;;
22254;SDS011;11296;42.684;23.322;2022-10-16T10:15:35;4.18;;;3.40;;
22254;SDS011;11296;42.684;23.322;2022-10-16T10:18:34;3.60;;;2.97;;
22254;SDS011;11296;42.684;23.322;2022-10-16T10:21:02;4.85;;;3.28;;
22254;SDS011;11296;42.684;23.322;2022-10-16T10:23:33;28.38;;;21.50;;
22254;SDS011;11296;42.684;23.322;2022-10-16T10:26:18;3.30;;;3.00;;
22254;SDS011;11296;42.684;23.322;2022-10-16T10:28:55;4.07;;;2.88;;
22254;SDS011;11296;42.684;23.322;2022-10-16T10:32:13;4.53;;;3.15;;
22254;SDS011;11296;42.684;23.322;2022-10-16T10:45:44;4.40;;;3.60;;
22254;SDS011;11296;42.684;23.322;2022-10-16T11:02:45;5.65;;;3.53;;
22254;SDS011;11296;42.684;23.322;2022-10-16T11:09:44;3.38;;;3.08;;
22254;SDS011;11296;42.684;23.322;2022-10-16T11:17:01;3.40;;;3.10;;
22254;SDS011;11296;42.684;23.322;2022-10-16T11:25:16;3.42;;;2.80;;
22254;SDS011;11296;42.684;23.322;2022-10-16T11:30:21;4.20;;;3.17;;
22254;SDS011;11296;42.684;23.322;2022-10-16T11:35:44;3.90;;;3.60;;
22254;SDS011;11296;42.684;23.322;2022-10-16T11:39:34;4.55;;;3.50;;
22254;SDS011;11296;42.684;23.322;2022-10-16T11:49:57;4.82;;;4.32;;
22254;SDS011;11296;42.684;23.322;2022-10-16T11:52:40;4.00;;;2.78;;
22254;SDS011;11296;42.684;23.322;2022-10-16T11:55:17;3.50;;;3.20;;
22254;SDS011;11296;42.684;23.322;2022-10-16T11:57:49;3.20;;;2.90;;
22254;SDS011;11296;42.684;23.322;2022-10-16T12:08:40;3.83;;;3.25;;
22254;SDS011;11296;42.684;23.322;2022-10-16T12:13:51;4.68;;;3.75;;
22254;SDS011;11296;42.684;23.322;2022-10-16T12:16:28;4.00;;;3.60;;
22254;SDS011;11296;42.684;23.322;2022-10-16T12:21:40;3.47;;;3.10;;
22254;SDS011;11296;42.684;23.322;2022-10-16T12:24:06;3.28;;;2.70;;
22254;SDS011;11296;42.684;23.322;2022-10-16T12:26:47;3.60;;;3.20;;
22254;SDS011;11296;42.684;23.322;2022-10-16T12:31:45;4.88;;;3.28;;
22254;SDS011;11296;42.684;23.322;2022-10-16T12:34:20;3.22;;;3.00;;
22254;SDS011;11296;42.684;23.322;2022-10-16T12:37:08;4.75;;;3.22;;
22254;SDS011;11296;42.684;23.322;2022-10-16T12:39:40;4.28;;;3.30;;
22254;SDS011;11296;42.684;23.322;2022-10-16T12:42:19;3.42;;;2.90;;
22254;SDS011;11296;42.684;23.322;2022-10-16T12:44:52;5.78;;;3.35;;
22254;SDS011;11296;42.684;23.322;2022-10-16T12:47:23;3.83;;;3.22;;
22254;SDS011;11296;42.684;23.322;2022-10-16T12:49:58;4.18;;;3.78;;
22254;SDS011;11296;42.684;23.322;2022-10-16T12:52:45;3.50;;;3.20;;
22254;SDS011;11296;42.684;23.322;2022-10-16T12:55:16;3.55;;;3.22;;
22254;SDS011;11296;42.684;23.322;2022-10-16T13:11:00;4.43;;;3.70;;
22254;SDS011;11296;42.684;23.322;2022-10-16T13:19:26;3.10;;;2.90;;
22254;SDS011;11296;42.684;23.322;2022-10-16T13:27:52;4.63;;;2.92;;
22254;SDS011;11296;42.684;23.322;2022-10-16T13:30:34;5.28;;;2.90;;
22254;SDS011;11296;42.684;23.322;2022-10-16T13:35:50;3.15;;;2.85;;
22254;SDS011;11296;42.684;23.322;2022-10-16T13:38:25;3.20;;;2.75;;
22254;SDS011;11296;42.684;23.322;2022-10-16T13:40:56;6.80;;;3.40;;
22254;SDS011;11296;42.684;23.322;2022-10-16T13:43:26;3.70;;;2.83;;
22254;SDS011;11296;42.684;23.322;2022-10-16T13:46:04;3.33;;;3.03;;
22254;SDS011;11296;42.684;23.322;2022-10-16T13:48:38;4.35;;;3.45;;
22254;SDS011;11296;42.684;23.322;2022-10-16T13:51:14;7.32;;;6.53;;
22254;SDS011;11296;42.684;23.322;2022-10-16T13:53:43;7.95;;;5.32;;
22254;SDS011;11296;42.684;23.322;2022-10-16T13:56:16;6.22;;;5.22;;
22254;SDS011;11296;42.684;23.322;2022-10-16T13:58:44;3.15;;;2.85;;
22254;SDS011;11296;42.684;23.322;2022-10-16T14:01:18;2.88;;;2.63;;
22254;SDS011;11296;42.684;23.322;2022-10-16T14:03:48;5.07;;;2.90;;
22254;SDS011;11296;42.684;23.322;2022-10-16T14:06:16;3.20;;;2.80;;
22254;SDS011;11296;42.684;23.322;2022-10-16T14:09:09;5.13;;;3.50;;
22254;SDS011;11296;42.684;23.322;2022-10-16T14:11:46;3.28;;;2.63;;
22254;SDS011;11296;42.684;23.322;2022-10-16T14:14:16;2.80;;;2.60;;
22254;SDS011;11296;42.684;23.322;2022-10-16T14:16:45;2.85;;;2.53;;
22254;SDS011;11296;42.684;23.322;2022-10-16T14:19:19;2.95;;;2.20;;
22254;SDS011;11296;42.684;23.322;2022-10-16T14:21:48;4.03;;;2.63;;
22254;SDS011;11296;42.684;23.322;2022-10-16T14:24:24;2.95;;;2.25;;
22254;SDS011;11296;42.684;23.322;2022-10-16T14:26:57;3.38;;;2.20;;
22254;SDS011;11296;42.684;23.322;2022-10-16T14:29:31;2.70;;;2.40;;
22254;SDS011;11296;42.684;23.322;2022-10-16T14:32:02;2.88;;;2.58;;
22254;SDS011;11296;42.684;23.322;2022-10-16T14:34:34;3.45;;;2.70;;
22254;SDS011;11296;42.684;23.322;2022-10-16T14:37:24;2.53;;;2.33;;
22254;SDS011;11296;42.684;23.322;2022-10-16T14:39:51;5.20;;;2.60;;
22254;SDS011;11296;42.684;23.322;2022-10-16T14:42:18;3.25;;;2.50;;
22254;SDS011;11296;42.684;23.322;2022-10-16T14:44:48;2.97;;;2.70;;
22254;SDS011;11296;42.684;23.322;2022-10-16T14:47:18;4.03;;;2.60;;
22254;SDS011;11296;42.684;23.322;2022-10-16T14:49:47;2.80;;;2.55;;
22254;SDS011;11296;42.684;23.322;2022-10-16T14:52:13;4.27;;;2.87;;
22254;SDS011;11296;42.684;23.322;2022-10-16T14:54:39;3.37;;;2.70;;
22254;SDS011;11296;42.684;23.322;2022-10-16T14:57:17;2.80;;;2.50;;
22254;SDS011;11296;42.684;23.322;2022-10-16T14:59:44;3.17;;;2.83;;
22254;SDS011;11296;42.684;23.322;2022-10-16T15:04:58;3.23;;;2.50;;
22254;SDS011;11296;42.684;23.322;2022-10-16T15:07:36;3.63;;;2.57;;
22254;SDS011;11296;42.684;23.322;2022-10-16T15:10:02;3.50;;;3.10;;
22254;SDS011;11296;42.684;23.322;2022-10-16T15:12:27;4.60;;;2.87;;
22254;SDS011;11296;42.684;23.322;2022-10-16T15:14:53;4.50;;;3.13;;
22254;SDS011;11296;42.684;23.322;2022-10-16T15:17:19;3.97;;;2.80;;
22254;SDS011;11296;42.684;23.322;2022-10-16T15:19:44;4.97;;;3.00;;
22254;SDS011;11296;42.684;23.322;2022-10-16T15:22:13;4.33;;;2.87;;
22254;SDS011;11296;42.684;23.322;2022-10-16T15:24:38;4.07;;;3.23;;
22254;SDS011;11296;42.684;23.322;2022-10-16T15:27:04;5.10;;;3.27;;
22254;SDS011;11296;42.684;23.322;2022-10-16T15:29:30;5.57;;;3.27;;
22254;SDS011;11296;42.684;23.322;2022-10-16T15:31:56;4.53;;;2.60;;
22254;SDS011;11296;42.684;23.322;2022-10-16T15:34:21;4.53;;;2.83;;
22254;SDS011;11296;42.684;23.322;2022-10-16T15:36:47;4.27;;;3.20;;
22254;SDS011;11296;42.684;23.322;2022-10-16T15:39:14;4.70;;;3.50;;
22254;SDS011;11296;42.684;23.322;2022-10-16T15:41:42;4.10;;;2.77;;
22254;SDS011;11296;42.684;23.322;2022-10-16T15:44:08;5.17;;;3.03;;
22254;SDS011;11296;42.684;23.322;2022-10-16T15:46:34;6.33;;;3.87;;
22254;SDS011;11296;42.684;23.322;2022-10-16T15:49:00;4.77;;;3.20;;
22254;SDS011;11296;42.684;23.322;2022-10-16T15:51:26;4.97;;;3.50;;
22254;SDS011;11296;42.684;23.322;2022-10-16T15:53:57;5.00;;;3.20;;
22254;SDS011;11296;42.684;23.322;2022-10-16T15:56:24;7.57;;;3.50;;
22254;SDS011;11296;42.684;23.322;2022-10-16T15:58:51;6.57;;;3.90;;
22254;SDS011;11296;42.684;23.322;2022-10-16T16:01:19;4.10;;;3.63;;
22254;SDS011;11296;42.684;23.322;2022-10-16T16:03:44;5.23;;;3.30;;
22254;SDS011;11296;42.684;23.322;2022-10-16T16:06:11;3.27;;;2.97;;
22254;SDS011;11296;42.684;23.322;2022-10-16T16:08:38;4.93;;;3.30;;
22254;SDS011;11296;42.684;23.322;2022-10-16T16:11:05;6.63;;;3.83;;
22254;SDS011;11296;42.684;23.322;2022-10-16T16:13:35;4.73;;;3.60;;
22254;SDS011;11296;42.684;23.322;2022-10-16T16:16:10;6.73;;;4.10;;
22254;SDS011;11296;42.684;23.322;2022-10-16T16:18:38;5.30;;;3.73;;
22254;SDS011;11296;42.684;23.322;2022-10-16T16:21:04;5.27;;;4.13;;
22254;SDS011;11296;42.684;23.322;2022-10-16T16:23:31;5.47;;;4.67;;
22254;SDS011;11296;42.684;23.322;2022-10-16T16:29:00;8.33;;;4.77;;
22254;SDS011;11296;42.684;23.322;2022-10-16T16:31:26;13.20;;;5.13;;
22254;SDS011;11296;42.684;23.322;2022-10-16T16:33:53;10.53;;;5.40;;
22254;SDS011;11296;42.684;23.322;2022-10-16T16:36:19;13.70;;;6.13;;
22254;SDS011;11296;42.684;23.322;2022-10-16T16:38:45;10.30;;;5.80;;
22254;SDS011;11296;42.684;23.322;2022-10-16T16:41:15;13.90;;;5.90;;
22254;SDS011;11296;42.684;23.322;2022-10-16T16:43:41;12.03;;;5.67;;
22254;SDS011;11296;42.684;23.322;2022-10-16T16:46:07;11.53;;;5.57;;
22254;SDS011;11296;42.684;23.322;2022-10-16T16:48:33;11.57;;;5.87;;
22254;SDS011;11296;42.684;23.322;2022-10-16T16:51:04;9.73;;;5.77;;
22254;SDS011;11296;42.684;23.322;2022-10-16T16:53:35;14.27;;;6.00;;
22254;SDS011;11296;42.684;23.322;2022-10-16T16:56:05;11.47;;;6.50;;
22254;SDS011;11296;42.684;23.322;2022-10-16T16:58:31;11.47;;;6.67;;
22254;SDS011;11296;42.684;23.322;2022-10-16T17:00:57;13.23;;;7.10;;
22254;SDS011;11296;42.684;23.322;2022-10-16T17:03:27;18.03;;;8.40;;
22254;SDS011;11296;42.684;23.322;2022-10-16T17:05:58;16.00;;;7.30;;
22254;SDS011;11296;42.684;23.322;2022-10-16T17:08:27;11.37;;;7.03;;
22254;SDS011;11296;42.684;23.322;2022-10-16T17:10:54;15.00;;;7.63;;
22254;SDS011;11296;42.684;23.322;2022-10-16T17:13:23;12.00;;;7.73;;
22254;SDS011;11296;42.684;23.322;2022-10-16T17:15:51;15.30;;;8.23;;
22254;SDS011;11296;42.684;23.322;2022-10-16T17:18:20;16.43;;;8.80;;
22254;SDS011;11296;42.684;23.322;2022-10-16T17:20:46;18.77;;;10.90;;
22254;SDS011;11296;42.684;23.322;2022-10-16T17:23:13;21.17;;;10.27;;
22254;SDS011;11296;42.684;23.322;2022-10-16T17:25:40;20.97;;;10.30;;
22254;SDS011;11296;42.684;23.322;2022-10-16T17:28:07;20.13;;;10.40;;
22254;SDS011;11296;42.684;23.322;2022-10-16T17:30:36;17.27;;;9.57;;
22254;SDS011;11296;42.684;23.322;2022-10-16T17:33:03;18.67;;;10.13;;
22254;SDS011;11296;42.684;23.322;2022-10-16T17:35:35;17.20;;;9.20;;
22254;SDS011;11296;42.684;23.322;2022-10-16T17:38:05;21.77;;;10.73;;
22254;SDS011;11296;42.684;23.322;2022-10-16T17:40:31;18.50;;;10.30;;
22254;SDS011;11296;42.684;23.322;2022-10-16T17:42:58;22.07;;;10.70;;